sensor_id;sensor_type;location;lat;lon;timestamp;pressure;altitude;pressure_sealevel;temperature;humidity
73284;BME280;61519;60.050;18.582;2023-07-31T00:01:22;100159.38;;;17.46;66.69
73284;BME280;61519;60.050;18.582;2023-07-31T00:03:47;100156.13;;;17.44;66.57
73284;BME280;61519;60.050;18.582;2023-07-31T00:06:13;100142.47;;;17.40;66.55
73284;BME280;61519;60.050;18.582;2023-07-31T00:08:38;100186.25;;;17.68;66.64
73284;BME280;61519;60.050;18.582;2023-07-31T00:11:03;100149.19;;;17.43;66.69
73284;BME280;61519;60.050;18.582;2023-07-31T00:13:29;100164.47;;;17.47;66.81
73284;BME280;61519;60.050;18.582;2023-07-31T00:15:54;100133.56;;;17.35;66.70
73284;BME280;61519;60.050;18.582;2023-07-31T00:18:20;100176.66;;;17.55;66.33
73284;BME280;61519;60.050;18.582;2023-07-31T00:20:45;100162.59;;;17.48;66.80
73284;BME280;61519;60.050;18.582;2023-07-31T00:23:10;100124.31;;;17.14;67.20
73284;BME280;61519;60.050;18.582;2023-07-31T00:25:36;100080.25;;;16.84;66.92
73284;BME280;61519;60.050;18.582;2023-07-31T00:28:01;100180.69;;;17.46;66.82
73284;BME280;61519;60.050;18.582;2023-07-31T00:30:26;100180.69;;;17.46;66.89
73284;BME280;61519;60.050;18.582;2023-07-31T00:32:52;100176.44;;;17.45;66.88
73284;BME280;61519;60.050;18.582;2023-07-31T00:35:17;100158.59;;;17.34;66.92
73284;BME280;61519;60.050;18.582;2023-07-31T00:37:43;100184.44;;;17.45;66.89
73284;BME280;61519;60.050;18.582;2023-07-31T00:40:08;100174.78;;;17.44;66.92
73284;BME280;61519;60.050;18.582;2023-07-31T00:42:34;100146.69;;;17.25;66.85
73284;BME280;61519;60.050;18.582;2023-07-31T00:44:59;100173.75;;;17.45;66.65
73284;BME280;61519;60.050;18.582;2023-07-31T00:47:24;100164.41;;;17.31;66.85
73284;BME280;61519;60.050;18.582;2023-07-31T00:49:50;100174.34;;;17.47;66.86
73284;BME280;61519;60.050;18.582;2023-07-31T00:52:16;100189.28;;;17.48;66.84
73284;BME280;61519;60.050;18.582;2023-07-31T00:54:42;100167.28;;;17.41;66.67
73284;BME280;61519;60.050;18.582;2023-07-31T00:57:07;100181.19;;;17.43;66.76
73284;BME280;61519;60.050;18.582;2023-07-31T00:59:33;100145.84;;;17.24;66.79
73284;BME280;61519;60.050;18.582;2023-07-31T01:01:59;100150.59;;;17.34;66.92
73284;BME280;61519;60.050;18.582;2023-07-31T01:04:25;100156.03;;;17.39;66.65
73284;BME280;61519;60.050;18.582;2023-07-31T01:09:37;100164.84;;;17.51;66.75
73284;BME280;61519;60.050;18.582;2023-07-31T01:12:07;100166.94;;;17.49;66.52
73284;BME280;61519;60.050;18.582;2023-07-31T01:14:32;100172.84;;;17.51;66.71
73284;BME280;61519;60.050;18.582;2023-07-31T01:16:58;100150.78;;;17.44;66.79
73284;BME280;61519;60.050;18.582;2023-07-31T01:19:25;100168.78;;;17.48;66.70
73284;BME280;61519;60.050;18.582;2023-07-31T01:24:55;100166.34;;;17.47;66.70
73284;BME280;61519;60.050;18.582;2023-07-31T01:27:27;100172.47;;;17.47;66.81
73284;BME280;61519;60.050;18.582;2023-07-31T01:30:08;100164.69;;;17.46;66.82
73284;BME280;61519;60.050;18.582;2023-07-31T01:32:40;100171.66;;;17.47;66.73
73284;BME280;61519;60.050;18.582;2023-07-31T01:35:07;100163.66;;;17.47;67.23
73284;BME280;61519;60.050;18.582;2023-07-31T01:37:33;100171.66;;;17.47;66.73
73284;BME280;61519;60.050;18.582;2023-07-31T01:39:59;100155.47;;;17.37;66.79
73284;BME280;61519;60.050;18.582;2023-07-31T01:42:24;100137.97;;;17.18;66.59
73284;BME280;61519;60.050;18.582;2023-07-31T01:44:49;100154.41;;;17.38;66.78
73284;BME280;61519;60.050;18.582;2023-07-31T01:47:15;100166.13;;;17.48;67.06
73284;BME280;61519;60.050;18.582;2023-07-31T01:49:40;100162.84;;;17.46;66.85
73284;BME280;61519;60.050;18.582;2023-07-31T01:52:06;100135.53;;;17.28;66.71
73284;BME280;61519;60.050;18.582;2023-07-31T01:54:31;100175.38;;;17.46;66.64
73284;BME280;61519;60.050;18.582;2023-07-31T01:56:56;100156.69;;;17.46;66.82
73284;BME280;61519;60.050;18.582;2023-07-31T01:59:22;100143.66;;;17.33;66.80
73284;BME280;61519;60.050;18.582;2023-07-31T02:01:47;100130.78;;;17.30;66.81
73284;BME280;61519;60.050;18.582;2023-07-31T02:04:12;100159.94;;;17.48;66.75
73284;BME280;61519;60.050;18.582;2023-07-31T02:06:39;100158.13;;;17.48;66.92
73284;BME280;61519;60.050;18.582;2023-07-31T02:09:04;100162.59;;;17.48;66.81
73284;BME280;61519;60.050;18.582;2023-07-31T02:11:30;100128.03;;;17.25;67.03
73284;BME280;61519;60.050;18.582;2023-07-31T02:13:55;100167.94;;;17.48;66.85
73284;BME280;61519;60.050;18.582;2023-07-31T02:16:20;100169.78;;;17.47;66.78
73284;BME280;61519;60.050;18.582;2023-07-31T02:18:46;100169.59;;;17.49;66.76
73284;BME280;61519;60.050;18.582;2023-07-31T02:21:11;100133.44;;;17.30;66.89
73284;BME280;61519;60.050;18.582;2023-07-31T02:23:36;100175.72;;;17.49;66.89
73284;BME280;61519;60.050;18.582;2023-07-31T02:26:02;100143.75;;;17.38;66.86
73284;BME280;61519;60.050;18.582;2023-07-31T02:28:28;100174.47;;;17.52;66.90
73284;BME280;61519;60.050;18.582;2023-07-31T02:30:53;100172.28;;;17.49;66.97
73284;BME280;61519;60.050;18.582;2023-07-31T02:33:18;100117.25;;;17.20;66.99
73284;BME280;61519;60.050;18.582;2023-07-31T02:35:44;100164.84;;;17.51;66.99
73284;BME280;61519;60.050;18.582;2023-07-31T02:38:09;100156.84;;;17.51;66.98
73284;BME280;61519;60.050;18.582;2023-07-31T02:40:34;100162.28;;;17.56;67.07
73284;BME280;61519;60.050;18.582;2023-07-31T02:42:59;100153.47;;;17.55;66.95
73284;BME280;61519;60.050;18.582;2023-07-31T02:45:25;100143.50;;;17.39;67.20
73284;BME280;61519;60.050;18.582;2023-07-31T02:47:50;100062.41;;;16.96;67.03
73284;BME280;61519;60.050;18.582;2023-07-31T02:50:15;100138.53;;;17.43;66.98
73284;BME280;61519;60.050;18.582;2023-07-31T02:52:41;100004.78;;;16.66;67.01
73284;BME280;61519;60.050;18.582;2023-07-31T02:55:06;100072.81;;;16.97;67.26
73284;BME280;61519;60.050;18.582;2023-07-31T02:57:32;100153.31;;;17.62;66.92
73284;BME280;61519;60.050;18.582;2023-07-31T02:59:57;100166.66;;;17.62;66.88
73284;BME280;61519;60.050;18.582;2023-07-31T03:02:23;100139.22;;;17.50;67.02
73284;BME280;61519;60.050;18.582;2023-07-31T03:04:48;100069.09;;;17.10;67.15
73284;BME280;61519;60.050;18.582;2023-07-31T03:07:13;100118.47;;;17.40;66.98
73284;BME280;61519;60.050;18.582;2023-07-31T03:09:39;100163.03;;;17.68;66.87
73284;BME280;61519;60.050;18.582;2023-07-31T03:12:04;100121.63;;;17.49;66.98
73284;BME280;61519;60.050;18.582;2023-07-31T03:14:30;100145.78;;;17.71;67.04
73284;BME280;61519;60.050;18.582;2023-07-31T03:16:55;100051.25;;;16.99;66.81
73284;BME280;61519;60.050;18.582;2023-07-31T03:19:20;100154.09;;;17.74;66.87
73284;BME280;61519;60.050;18.582;2023-07-31T03:21:46;100151.44;;;17.74;66.84
73284;BME280;61519;60.050;18.582;2023-07-31T03:24:11;100103.94;;;17.48;66.67
73284;BME280;61519;60.050;18.582;2023-07-31T03:26:37;100149.34;;;17.76;66.90
73284;BME280;61519;60.050;18.582;2023-07-31T03:29:03;100043.38;;;17.04;66.92
73284;BME280;61519;60.050;18.582;2023-07-31T03:31:29;100134.09;;;17.60;66.76
73284;BME280;61519;60.050;18.582;2023-07-31T03:33:54;100131.19;;;17.62;66.95
73284;BME280;61519;60.050;18.582;2023-07-31T03:36:19;100110.00;;;17.55;66.75
73284;BME280;61519;60.050;18.582;2023-07-31T03:38:46;100150.31;;;17.87;66.87
73284;BME280;61519;60.050;18.582;2023-07-31T03:41:11;100139.31;;;17.83;67.05
73284;BME280;61519;60.050;18.582;2023-07-31T03:43:37;100148.66;;;17.97;66.74
73284;BME280;61519;60.050;18.582;2023-07-31T03:46:02;100153.03;;;18.03;66.58
73284;BME280;61519;60.050;18.582;2023-07-31T03:48:28;100107.78;;;17.80;66.33
73284;BME280;61519;60.050;18.582;2023-07-31T03:50:54;100157.34;;;18.21;66.46
73284;BME280;61519;60.050;18.582;2023-07-31T03:53:19;100119.72;;;18.06;66.52
73284;BME280;61519;60.050;18.582;2023-07-31T03:55:45;100081.19;;;17.85;66.29
73284;BME280;61519;60.050;18.582;2023-07-31T03:58:10;100154.53;;;18.27;66.18
73284;BME280;61519;60.050;18.582;2023-07-31T04:00:36;100113.06;;;18.08;66.28
73284;BME280;61519;60.050;18.582;2023-07-31T04:03:01;100161.78;;;18.44;66.25
73284;BME280;61519;60.050;18.582;2023-07-31T04:05:26;100161.84;;;18.49;66.17
73284;BME280;61519;60.050;18.582;2023-07-31T04:07:52;100167.25;;;18.54;66.09
73284;BME280;61519;60.050;18.582;2023-07-31T04:10:17;100137.16;;;18.41;65.95
73284;BME280;61519;60.050;18.582;2023-07-31T04:12:42;100134.31;;;18.48;65.95
73284;BME280;61519;60.050;18.582;2023-07-31T04:15:24;100115.88;;;18.47;66.06
73284;BME280;61519;60.050;18.582;2023-07-31T04:17:49;100121.94;;;18.59;65.89
73284;BME280;61519;60.050;18.582;2023-07-31T04:20:15;100105.91;;;18.59;65.42
73284;BME280;61519;60.050;18.582;2023-07-31T04:22:40;100147.47;;;18.88;65.28
73284;BME280;61519;60.050;18.582;2023-07-31T04:25:06;100136.94;;;18.98;65.49
73284;BME280;61519;60.050;18.582;2023-07-31T04:27:31;100109.25;;;18.87;65.35
73284;BME280;61519;60.050;18.582;2023-07-31T04:29:56;100140.44;;;19.20;65.33
73284;BME280;61519;60.050;18.582;2023-07-31T04:32:22;100139.00;;;19.12;65.21
73284;BME280;61519;60.050;18.582;2023-07-31T04:34:47;100087.16;;;18.92;64.89
73284;BME280;61519;60.050;18.582;2023-07-31T04:37:12;100079.59;;;18.89;64.73
73284;BME280;61519;60.050;18.582;2023-07-31T04:39:39;100130.88;;;19.24;64.89
73284;BME280;61519;60.050;18.582;2023-07-31T04:42:04;100135.72;;;19.27;64.95
73284;BME280;61519;60.050;18.582;2023-07-31T04:44:30;100102.06;;;19.09;64.97
73284;BME280;61519;60.050;18.582;2023-07-31T04:46:55;100087.09;;;19.08;64.85
73284;BME280;61519;60.050;18.582;2023-07-31T04:49:20;100142.47;;;19.51;64.55
73284;BME280;61519;60.050;18.582;2023-07-31T04:51:46;100115.28;;;19.38;64.54
73284;BME280;61519;60.050;18.582;2023-07-31T04:54:22;100115.91;;;19.45;64.17
73284;BME280;61519;60.050;18.582;2023-07-31T04:56:48;100144.81;;;19.69;64.25
73284;BME280;61519;60.050;18.582;2023-07-31T04:59:13;100137.34;;;19.71;64.39
73284;BME280;61519;60.050;18.582;2023-07-31T05:01:38;100142.47;;;19.78;63.92
73284;BME280;61519;60.050;18.582;2023-07-31T05:04:04;100155.53;;;19.96;63.85
73284;BME280;61519;60.050;18.582;2023-07-31T05:06:29;100149.44;;;20.05;63.66
73284;BME280;61519;60.050;18.582;2023-07-31T05:08:54;100104.47;;;19.76;63.45
73284;BME280;61519;60.050;18.582;2023-07-31T05:11:20;100147.44;;;20.17;63.28
73284;BME280;61519;60.050;18.582;2023-07-31T05:13:45;100161.53;;;20.35;63.20
73284;BME280;61519;60.050;18.582;2023-07-31T05:16:10;100140.41;;;20.38;63.19
73284;BME280;61519;60.050;18.582;2023-07-31T05:18:35;100128.91;;;20.43;62.70
73284;BME280;61519;60.050;18.582;2023-07-31T05:21:01;100133.25;;;20.49;62.58
73284;BME280;61519;60.050;18.582;2023-07-31T05:23:27;100135.47;;;20.57;62.45
73284;BME280;61519;60.050;18.582;2023-07-31T05:25:52;100152.19;;;20.74;62.35
73284;BME280;61519;60.050;18.582;2023-07-31T05:28:17;100157.91;;;20.87;61.87
73284;BME280;61519;60.050;18.582;2023-07-31T05:30:43;100145.31;;;20.88;61.85
73284;BME280;61519;60.050;18.582;2023-07-31T05:33:08;100151.66;;;21.14;61.63
73284;BME280;61519;60.050;18.582;2023-07-31T05:35:33;100140.66;;;21.10;61.59
73284;BME280;61519;60.050;18.582;2023-07-31T05:37:59;100143.66;;;21.29;61.30
73284;BME280;61519;60.050;18.582;2023-07-31T05:40:24;100151.50;;;21.35;60.99
73284;BME280;61519;60.050;18.582;2023-07-31T05:42:49;100141.31;;;21.37;60.87
73284;BME280;61519;60.050;18.582;2023-07-31T05:45:15;100141.88;;;21.44;60.68
73284;BME280;61519;60.050;18.582;2023-07-31T05:47:40;100141.38;;;21.57;60.25
73284;BME280;61519;60.050;18.582;2023-07-31T05:50:06;100134.97;;;21.63;59.91
73284;BME280;61519;60.050;18.582;2023-07-31T05:52:31;100048.19;;;21.28;59.34
73284;BME280;61519;60.050;18.582;2023-07-31T05:54:56;100031.59;;;21.46;58.98
73284;BME280;61519;60.050;18.582;2023-07-31T05:57:22;100083.97;;;21.78;59.04
73284;BME280;61519;60.050;18.582;2023-07-31T05:59:47;100139.66;;;22.23;58.84
73284;BME280;61519;60.050;18.582;2023-07-31T06:02:13;100170.00;;;22.39;58.80
73284;BME280;61519;60.050;18.582;2023-07-31T06:04:38;100121.13;;;22.27;58.47
73284;BME280;61519;60.050;18.582;2023-07-31T06:07:03;100161.44;;;22.67;58.20
73284;BME280;61519;60.050;18.582;2023-07-31T06:09:29;100154.94;;;22.88;57.80
73284;BME280;61519;60.050;18.582;2023-07-31T06:11:54;100148.47;;;23.09;57.55
73284;BME280;61519;60.050;18.582;2023-07-31T06:14:19;100134.13;;;23.34;56.66
73284;BME280;61519;60.050;18.582;2023-07-31T06:16:45;100116.97;;;23.74;55.83
73284;BME280;61519;60.050;18.582;2023-07-31T06:19:10;100142.44;;;24.35;55.03
73284;BME280;61519;60.050;18.582;2023-07-31T06:21:36;100118.75;;;24.89;53.87
73284;BME280;61519;60.050;18.582;2023-07-31T06:24:05;100138.34;;;25.66;52.52
73284;BME280;61519;60.050;18.582;2023-07-31T06:26:30;100140.81;;;26.18;51.81
73284;BME280;61519;60.050;18.582;2023-07-31T06:28:56;100136.88;;;27.34;49.78
73284;BME280;61519;60.050;18.582;2023-07-31T06:31:21;100130.72;;;28.05;48.54
73284;BME280;61519;60.050;18.582;2023-07-31T06:33:49;100083.34;;;32.24;40.84
73284;BME280;61519;60.050;18.582;2023-07-31T06:36:14;100084.34;;;37.53;33.89
73284;BME280;61519;60.050;18.582;2023-07-31T06:38:40;100099.66;;;40.62;30.91
73284;BME280;61519;60.050;18.582;2023-07-31T06:41:05;100153.72;;;42.59;29.82
73284;BME280;61519;60.050;18.582;2023-07-31T06:43:30;100090.81;;;41.69;30.36
73284;BME280;61519;60.050;18.582;2023-07-31T06:45:56;100029.75;;;45.13;26.02
73284;BME280;61519;60.050;18.582;2023-07-31T06:48:21;100148.75;;;47.72;24.21
73284;BME280;61519;60.050;18.582;2023-07-31T06:50:46;100109.31;;;44.15;27.59
73284;BME280;61519;60.050;18.582;2023-07-31T06:53:12;100158.34;;;42.83;28.54
73284;BME280;61519;60.050;18.582;2023-07-31T06:55:37;100096.38;;;41.73;28.08
73284;BME280;61519;60.050;18.582;2023-07-31T06:58:02;100125.16;;;42.62;26.80
73284;BME280;61519;60.050;18.582;2023-07-31T07:00:28;100046.31;;;46.47;22.47
73284;BME280;61519;60.050;18.582;2023-07-31T07:02:54;100140.03;;;44.84;24.50
73284;BME280;61519;60.050;18.582;2023-07-31T07:05:19;100147.16;;;42.90;26.00
73284;BME280;61519;60.050;18.582;2023-07-31T07:07:45;100154.22;;;40.97;27.89
73284;BME280;61519;60.050;18.582;2023-07-31T07:10:10;100123.38;;;39.56;28.35
73284;BME280;61519;60.050;18.582;2023-07-31T07:12:36;100155.25;;;38.55;29.22
73284;BME280;61519;60.050;18.582;2023-07-31T07:15:02;100137.22;;;37.39;29.73
73284;BME280;61519;60.050;18.582;2023-07-31T07:17:29;100069.03;;;36.54;29.65
73284;BME280;61519;60.050;18.582;2023-07-31T07:19:57;100095.56;;;35.86;30.50
73284;BME280;61519;60.050;18.582;2023-07-31T07:22:23;100051.84;;;34.89;31.15
73284;BME280;61519;60.050;18.582;2023-07-31T07:24:49;100120.78;;;35.38;30.96
73284;BME280;61519;60.050;18.582;2023-07-31T07:27:14;100119.56;;;35.89;30.16
73284;BME280;61519;60.050;18.582;2023-07-31T07:29:40;100119.63;;;37.21;28.64
73284;BME280;61519;60.050;18.582;2023-07-31T07:32:05;100099.78;;;37.31;28.51
73284;BME280;61519;60.050;18.582;2023-07-31T07:34:31;100142.44;;;37.22;28.82
73284;BME280;61519;60.050;18.582;2023-07-31T07:36:56;100127.16;;;37.24;28.96
73284;BME280;61519;60.050;18.582;2023-07-31T07:39:21;100118.16;;;36.78;29.23
73284;BME280;61519;60.050;18.582;2023-07-31T07:41:47;100100.19;;;37.89;27.67
73284;BME280;61519;60.050;18.582;2023-07-31T07:44:13;100061.53;;;38.59;27.16
73284;BME280;61519;60.050;18.582;2023-07-31T07:46:38;100050.47;;;39.71;25.81
73284;BME280;61519;60.050;18.582;2023-07-31T07:49:04;100120.44;;;39.28;27.02
73284;BME280;61519;60.050;18.582;2023-07-31T07:51:29;100086.66;;;37.77;28.14
73284;BME280;61519;60.050;18.582;2023-07-31T07:53:56;100057.13;;;36.92;28.56
73284;BME280;61519;60.050;18.582;2023-07-31T07:56:22;100020.72;;;36.76;28.40
73284;BME280;61519;60.050;18.582;2023-07-31T07:58:49;100118.69;;;39.67;25.86
73284;BME280;61519;60.050;18.582;2023-07-31T08:01:15;100086.97;;;40.29;25.79
73284;BME280;61519;60.050;18.582;2023-07-31T08:03:40;100114.28;;;41.30;24.99
73284;BME280;61519;60.050;18.582;2023-07-31T08:06:05;100117.72;;;40.14;26.35
73284;BME280;61519;60.050;18.582;2023-07-31T08:08:31;100042.03;;;38.31;27.29
73284;BME280;61519;60.050;18.582;2023-07-31T08:10:56;100098.34;;;37.15;28.35
73284;BME280;61519;60.050;18.582;2023-07-31T08:13:21;100108.59;;;35.89;29.23
73284;BME280;61519;60.050;18.582;2023-07-31T08:15:47;100063.53;;;34.70;30.40
73284;BME280;61519;60.050;18.582;2023-07-31T08:18:12;100108.00;;;34.36;30.99
73284;BME280;61519;60.050;18.582;2023-07-31T08:20:37;100111.59;;;33.97;31.47
73284;BME280;61519;60.050;18.582;2023-07-31T08:23:03;100095.38;;;33.76;31.09
73284;BME280;61519;60.050;18.582;2023-07-31T08:25:29;100096.56;;;34.18;30.63
73284;BME280;61519;60.050;18.582;2023-07-31T08:27:54;100065.03;;;35.33;29.01
73284;BME280;61519;60.050;18.582;2023-07-31T08:30:21;100085.03;;;35.50;29.69
73284;BME280;61519;60.050;18.582;2023-07-31T08:32:46;100073.78;;;35.39;29.80
73284;BME280;61519;60.050;18.582;2023-07-31T08:35:12;100062.34;;;36.33;28.59
73284;BME280;61519;60.050;18.582;2023-07-31T08:37:38;100065.41;;;37.22;27.57
73284;BME280;61519;60.050;18.582;2023-07-31T08:40:05;100068.75;;;38.71;26.36
73284;BME280;61519;60.050;18.582;2023-07-31T08:42:30;100075.56;;;42.71;22.67
73284;BME280;61519;60.050;18.582;2023-07-31T08:44:56;100068.66;;;46.63;20.20
73284;BME280;61519;60.050;18.582;2023-07-31T08:47:22;100054.88;;;50.10;17.76
73284;BME280;61519;60.050;18.582;2023-07-31T08:49:49;100079.84;;;52.40;16.38
73284;BME280;61519;60.050;18.582;2023-07-31T08:52:16;100075.84;;;53.91;15.79
73284;BME280;61519;60.050;18.582;2023-07-31T08:54:41;100081.41;;;52.65;16.46
73284;BME280;61519;60.050;18.582;2023-07-31T08:57:07;100052.59;;;49.13;18.52
73284;BME280;61519;60.050;18.582;2023-07-31T08:59:35;100044.00;;;46.10;19.61
73284;BME280;61519;60.050;18.582;2023-07-31T09:02:05;100026.97;;;43.34;21.33
73284;BME280;61519;60.050;18.582;2023-07-31T09:04:32;100037.97;;;41.11;22.54
73284;BME280;61519;60.050;18.582;2023-07-31T09:07:01;100030.06;;;39.11;23.85
73284;BME280;61519;60.050;18.582;2023-07-31T09:09:28;100009.13;;;37.42;24.85
73284;BME280;61519;60.050;18.582;2023-07-31T09:11:54;100024.44;;;36.19;25.74
73284;BME280;61519;60.050;18.582;2023-07-31T09:14:20;100024.25;;;34.97;26.87
73284;BME280;61519;60.050;18.582;2023-07-31T09:16:57;100016.16;;;33.95;27.83
73284;BME280;61519;60.050;18.582;2023-07-31T09:19:29;100016.06;;;33.12;28.61
73284;BME280;61519;60.050;18.582;2023-07-31T09:21:57;100021.94;;;32.30;29.85
73284;BME280;61519;60.050;18.582;2023-07-31T09:24:30;100014.19;;;31.54;30.65
73284;BME280;61519;60.050;18.582;2023-07-31T09:26:57;100009.72;;;30.71;31.51
73284;BME280;61519;60.050;18.582;2023-07-31T09:29:23;100002.47;;;29.82;32.75
73284;BME280;61519;60.050;18.582;2023-07-31T09:31:48;99992.69;;;29.13;33.28
73284;BME280;61519;60.050;18.582;2023-07-31T09:34:14;99934.88;;;28.08;34.39
73284;BME280;61519;60.050;18.582;2023-07-31T09:36:44;99957.22;;;27.61;35.61
73284;BME280;61519;60.050;18.582;2023-07-31T09:39:10;100038.09;;;27.54;36.48
73284;BME280;61519;60.050;18.582;2023-07-31T09:41:37;100047.69;;;27.11;37.30
73284;BME280;61519;60.050;18.582;2023-07-31T09:44:03;100067.75;;;26.69;38.21
73284;BME280;61519;60.050;18.582;2023-07-31T09:46:30;100087.19;;;26.25;38.75
73284;BME280;61519;60.050;18.582;2023-07-31T09:49:09;100141.28;;;25.88;40.00
73284;BME280;61519;60.050;18.582;2023-07-31T09:51:36;100166.88;;;25.06;43.55
73284;BME280;61519;60.050;18.582;2023-07-31T09:54:15;100163.66;;;23.54;45.69
73284;BME280;61519;60.050;18.582;2023-07-31T09:56:46;100167.56;;;22.17;48.15
73284;BME280;61519;60.050;18.582;2023-07-31T09:59:16;100155.75;;;21.31;51.76
73284;BME280;61519;60.050;18.582;2023-07-31T10:01:43;100142.56;;;20.78;53.49
73284;BME280;61519;60.050;18.582;2023-07-31T10:04:10;100140.06;;;20.30;54.37
73284;BME280;61519;60.050;18.582;2023-07-31T10:06:36;100135.41;;;19.93;55.18
73284;BME280;61519;60.050;18.582;2023-07-31T10:09:05;100136.69;;;19.59;55.73
73284;BME280;61519;60.050;18.582;2023-07-31T10:11:35;100097.03;;;19.13;56.22
73284;BME280;61519;60.050;18.582;2023-07-31T10:14:03;100125.41;;;19.14;56.88
73284;BME280;61519;60.050;18.582;2023-07-31T10:16:30;100110.94;;;18.93;57.08
73284;BME280;61519;60.050;18.582;2023-07-31T10:18:56;100108.47;;;18.87;57.20
73284;BME280;61519;60.050;18.582;2023-07-31T10:21:22;100123.94;;;18.85;57.61
73284;BME280;61519;60.050;18.582;2023-07-31T10:23:47;100088.34;;;18.63;57.99
73284;BME280;61519;60.050;18.582;2023-07-31T10:26:14;100104.53;;;18.73;58.10
73284;BME280;61519;60.050;18.582;2023-07-31T10:28:40;100104.44;;;18.68;58.00
73284;BME280;61519;60.050;18.582;2023-07-31T10:31:07;100104.84;;;18.60;58.36
73284;BME280;61519;60.050;18.582;2023-07-31T10:33:33;100104.22;;;18.53;58.41
73284;BME280;61519;60.050;18.582;2023-07-31T10:36:18;100108.50;;;18.54;58.62
73284;BME280;61519;60.050;18.582;2023-07-31T10:38:44;100085.19;;;18.32;58.91
73284;BME280;61519;60.050;18.582;2023-07-31T10:41:10;100102.03;;;18.50;58.99
73284;BME280;61519;60.050;18.582;2023-07-31T10:43:37;100120.16;;;18.48;59.09
73284;BME280;61519;60.050;18.582;2023-07-31T10:46:12;100107.88;;;18.47;59.37
73284;BME280;61519;60.050;18.582;2023-07-31T10:48:39;100104.88;;;18.43;59.45
73284;BME280;61519;60.050;18.582;2023-07-31T10:51:08;100099.28;;;18.45;59.58
73284;BME280;61519;60.050;18.582;2023-07-31T10:53:35;100101.41;;;18.42;59.55
73284;BME280;61519;60.050;18.582;2023-07-31T10:56:07;100094.00;;;18.33;59.93
73284;BME280;61519;60.050;18.582;2023-07-31T10:58:33;100107.22;;;18.39;60.00
73284;BME280;61519;60.050;18.582;2023-07-31T11:01:05;100079.69;;;18.22;59.98
73284;BME280;61519;60.050;18.582;2023-07-31T11:03:48;100104.06;;;18.42;60.10
73284;BME280;61519;60.050;18.582;2023-07-31T11:06:15;100113.13;;;18.41;60.12
73284;BME280;61519;60.050;18.582;2023-07-31T11:08:49;100110.84;;;18.50;60.26
73284;BME280;61519;60.050;18.582;2023-07-31T11:11:20;100095.41;;;18.52;60.17
73284;BME280;61519;60.050;18.582;2023-07-31T11:16:14;100079.06;;;18.49;60.24
73284;BME280;61519;60.050;18.582;2023-07-31T11:18:41;100103.19;;;18.75;60.37
73284;BME280;61519;60.050;18.582;2023-07-31T11:21:08;100097.69;;;18.82;59.99
73284;BME280;61519;60.050;18.582;2023-07-31T11:23:37;100040.38;;;18.51;60.40
73284;BME280;61519;60.050;18.582;2023-07-31T11:26:05;100032.09;;;18.53;60.56
73284;BME280;61519;60.050;18.582;2023-07-31T11:28:34;100090.94;;;18.96;60.56
73284;BME280;61519;60.050;18.582;2023-07-31T11:31:00;100081.81;;;18.92;60.58
73284;BME280;61519;60.050;18.582;2023-07-31T11:33:26;100058.31;;;18.94;60.49
73284;BME280;61519;60.050;18.582;2023-07-31T11:35:52;100040.59;;;18.88;60.32
73284;BME280;61519;60.050;18.582;2023-07-31T11:38:22;100075.16;;;19.16;60.75
73284;BME280;61519;60.050;18.582;2023-07-31T11:40:49;100072.50;;;19.16;60.59
73284;BME280;61519;60.050;18.582;2023-07-31T11:43:14;100049.28;;;19.00;60.43
73284;BME280;61519;60.050;18.582;2023-07-31T11:45:46;100089.88;;;19.18;60.60
73284;BME280;61519;60.050;18.582;2023-07-31T11:48:21;100072.53;;;19.21;60.61
73284;BME280;61519;60.050;18.582;2023-07-31T11:50:48;100068.31;;;19.25;60.81
73284;BME280;61519;60.050;18.582;2023-07-31T11:53:15;100052.34;;;19.08;60.79
73284;BME280;61519;60.050;18.582;2023-07-31T11:55:42;100068.50;;;19.18;60.97
73284;BME280;61519;60.050;18.582;2023-07-31T11:58:08;100057.56;;;19.20;61.02
73284;BME280;61519;60.050;18.582;2023-07-31T12:00:33;100035.84;;;18.95;61.21
73284;BME280;61519;60.050;18.582;2023-07-31T12:02:59;100067.38;;;19.14;61.25
73284;BME280;61519;60.050;18.582;2023-07-31T12:05:24;100030.28;;;18.75;61.20
73284;BME280;61519;60.050;18.582;2023-07-31T12:07:52;100098.66;;;19.14;61.41
73284;BME280;61519;60.050;18.582;2023-07-31T12:10:29;100084.72;;;18.90;61.53
73284;BME280;61519;60.050;18.582;2023-07-31T12:13:05;100094.53;;;18.85;61.80
73284;BME280;61519;60.050;18.582;2023-07-31T12:15:44;100107.97;;;18.90;61.80
73284;BME280;61519;60.050;18.582;2023-07-31T12:18:13;100113.81;;;18.87;62.01
73284;BME280;61519;60.050;18.582;2023-07-31T12:20:46;100104.72;;;18.88;61.97
73284;BME280;61519;60.050;18.582;2023-07-31T12:23:24;100109.81;;;18.89;61.94
73284;BME280;61519;60.050;18.582;2023-07-31T12:28:27;100053.50;;;18.74;61.64
73284;BME280;61519;60.050;18.582;2023-07-31T12:30:59;100079.31;;;19.07;61.61
73284;BME280;61519;60.050;18.582;2023-07-31T12:33:34;100090.44;;;19.42;61.27
73284;BME280;61519;60.050;18.582;2023-07-31T12:36:06;100101.63;;;19.61;61.35
73284;BME280;61519;60.050;18.582;2023-07-31T12:38:31;100090.25;;;19.75;61.40
73284;BME280;61519;60.050;18.582;2023-07-31T12:40:57;100004.66;;;19.22;61.10
73284;BME280;61519;60.050;18.582;2023-07-31T12:43:22;100092.69;;;20.03;61.01
73284;BME280;61519;60.050;18.582;2023-07-31T12:45:48;100082.16;;;20.24;60.84
73284;BME280;61519;60.050;18.582;2023-07-31T12:48:14;100080.13;;;20.36;60.55